createdAt,value
2023-03-22T00:00:19.818Z,8.48
2023-03-22T00:02:48.796Z,6.35
2023-03-22T00:05:17.858Z,7.78
2023-03-22T00:07:50.331Z,9.50
2023-03-22T00:10:20.852Z,11.70
2023-03-22T00:12:49.788Z,9.27
2023-03-22T00:15:18.864Z,10.15
2023-03-22T00:17:47.939Z,10.15
2023-03-22T00:20:20.238Z,7.32
2023-03-22T00:22:49.733Z,11.10
2023-03-22T00:25:20.293Z,7.25
2023-03-22T00:27:49.276Z,11.77
2023-03-22T00:30:18.919Z,9.57
2023-03-22T00:32:48.017Z,8.95
2023-03-22T00:35:17.015Z,12.13
2023-03-22T00:37:45.928Z,8.02
2023-03-22T00:40:18.296Z,8.55
2023-03-22T00:42:48.853Z,8.05
2023-03-22T00:45:18.163Z,7.55
2023-03-22T00:47:47.140Z,9.38
2023-03-22T00:50:16.169Z,9.05
2023-03-22T00:52:45.202Z,7.85
2023-03-22T00:55:14.344Z,8.45
2023-03-22T00:57:43.256Z,8.48
2023-03-22T01:00:16.068Z,8.75
2023-03-22T01:02:47.328Z,8.38
2023-03-22T01:05:22.166Z,9.05
2023-03-22T01:07:51.960Z,9.02
2023-03-22T01:10:21.184Z,6.07
2023-03-22T01:12:50.251Z,7.82
2023-03-22T01:15:20.998Z,10.30
2023-03-22T01:17:50.403Z,8.60
2023-03-22T01:20:20.231Z,8.93
2023-03-22T01:22:49.294Z,8.85
2023-03-22T01:25:18.305Z,9.25
2023-03-22T01:27:47.313Z,6.30
2023-03-22T01:30:16.514Z,9.52
2023-03-22T01:32:46.881Z,7.95
2023-03-22T01:35:15.910Z,10.10
2023-03-22T01:37:45.023Z,8.40
2023-03-22T01:40:16.073Z,8.30
2023-03-22T01:42:46.208Z,10.90
2023-03-22T01:45:36.081Z,8.13
2023-03-22T01:48:24.010Z,10.50
2023-03-22T01:51:07.310Z,9.80
2023-03-22T01:53:46.898Z,8.07
2023-03-22T01:56:16.249Z,8.30
2023-03-22T01:58:45.381Z,12.13
2023-03-22T02:01:18.095Z,9.45
2023-03-22T02:03:54.757Z,8.43
2023-03-22T02:06:25.980Z,9.48
2023-03-22T02:09:02.430Z,10.07
2023-03-22T02:11:35.312Z,12.05
2023-03-22T02:14:32.156Z,7.55
2023-03-22T02:17:36.134Z,7.68
2023-03-22T02:20:48.455Z,7.88
2023-03-22T02:24:05.096Z,11.45
2023-03-22T02:26:59.675Z,8.93
2023-03-22T02:29:38.178Z,7.53
2023-03-22T02:32:32.491Z,8.15
2023-03-22T02:35:26.665Z,8.73
2023-03-22T02:38:19.121Z,9.27
2023-03-22T02:40:56.570Z,9.07
2023-03-22T02:43:38.857Z,8.75
2023-03-22T02:46:13.218Z,13.32
2023-03-22T02:48:51.782Z,11.55
2023-03-22T02:51:24.424Z,8.20
2023-03-22T02:53:58.724Z,9.38
2023-03-22T02:56:33.994Z,6.03
2023-03-22T03:01:38.555Z,7.50
2023-03-22T03:04:12.462Z,10.82
2023-03-22T03:06:47.313Z,8.65
2023-03-22T03:09:21.777Z,8.40
2023-03-22T03:11:54.792Z,7.70
2023-03-22T03:14:25.686Z,7.43
2023-03-22T03:17:12.042Z,7.03
2023-03-22T03:19:48.550Z,7.03
2023-03-22T03:22:38.630Z,7.57
2023-03-22T03:25:14.810Z,7.43
2023-03-22T03:27:51.221Z,5.32
2023-03-22T03:30:28.583Z,7.35
2023-03-22T03:33:00.610Z,5.78
2023-03-22T03:35:37.800Z,6.00
2023-03-22T03:38:11.004Z,5.07
2023-03-22T03:40:43.408Z,7.57
2023-03-22T03:43:14.640Z,4.40
2023-03-22T03:45:44.246Z,4.32
2023-03-22T03:48:21.671Z,5.80
2023-03-22T03:50:54.036Z,4.57
2023-03-22T03:53:23.790Z,4.55
2023-03-22T03:55:52.794Z,6.50
2023-03-22T03:58:23.323Z,6.05
2023-03-22T04:00:53.008Z,6.13
2023-03-22T04:03:41.295Z,5.57
2023-03-22T04:06:10.525Z,5.18
2023-03-22T04:08:45.691Z,5.30
2023-03-22T04:13:51.982Z,4.38
2023-03-22T04:16:25.180Z,3.28
2023-03-22T04:18:55.179Z,4.47
2023-03-22T04:21:24.166Z,4.05
2023-03-22T04:24:01.929Z,4.32
2023-03-22T04:26:36.195Z,5.10
2023-03-22T04:29:16.321Z,4.28
2023-03-22T04:31:50.021Z,5.93
2023-03-22T04:34:23.754Z,4.43
2023-03-22T04:37:03.260Z,5.28
2023-03-22T04:39:34.289Z,4.15
2023-03-22T04:42:29.210Z,4.25
2023-03-22T04:45:12.570Z,4.13
2023-03-22T04:47:43.385Z,4.20
2023-03-22T04:50:13.568Z,3.70
2023-03-22T04:52:52.621Z,5.78
2023-03-22T04:55:21.777Z,3.17
2023-03-22T04:57:51.295Z,3.05
2023-03-22T05:00:23.026Z,3.95
2023-03-22T05:02:52.992Z,4.47
2023-03-22T05:05:38.057Z,3.75
2023-03-22T05:08:07.973Z,5.47
2023-03-22T05:10:41.291Z,4.75
2023-03-22T05:13:10.965Z,3.30
2023-03-22T05:18:20.640Z,3.20
2023-03-22T05:20:49.967Z,4.10
2023-03-22T05:23:24.825Z,4.40
2023-03-22T05:25:58.466Z,4.57
2023-03-22T05:28:28.887Z,5.25
2023-03-22T05:31:23.462Z,4.40
2023-03-22T05:33:59.759Z,4.40
2023-03-22T05:36:31.390Z,4.22
2023-03-22T05:39:23.036Z,4.65
2023-03-22T05:41:52.922Z,3.35
2023-03-22T05:44:22.068Z,3.17
2023-03-22T05:47:02.328Z,4.78
2023-03-22T05:49:35.992Z,3.35
2023-03-22T05:52:07.353Z,2.95
2023-03-22T05:55:09.742Z,2.75
2023-03-22T05:57:39.235Z,2.10
2023-03-22T06:00:13.576Z,2.38
2023-03-22T06:02:52.426Z,1.85
2023-03-22T06:05:21.611Z,2.42
2023-03-22T06:07:52.736Z,1.85
2023-03-22T06:10:24.352Z,2.05
2023-03-22T06:12:53.903Z,1.63
2023-03-22T06:15:29.197Z,2.47
2023-03-22T06:17:59.878Z,1.50
2023-03-22T06:20:33.937Z,1.40
2023-03-22T06:23:09.003Z,1.30
2023-03-22T06:25:40.550Z,1.45
2023-03-22T06:28:10.294Z,1.63
2023-03-22T06:30:41.854Z,2.63
2023-03-22T06:33:31.441Z,1.52
2023-03-22T06:36:07.811Z,1.60
2023-03-22T06:38:45.315Z,1.95
2023-03-22T06:41:14.865Z,1.83
2023-03-22T06:43:44.050Z,1.45
2023-03-22T06:46:30.508Z,1.65
2023-03-22T06:49:10.725Z,1.83
2023-03-22T06:51:40.177Z,2.58
2023-03-22T06:54:09.816Z,1.70
2023-03-22T06:56:39.011Z,1.95
2023-03-22T06:59:08.810Z,2.22
2023-03-22T07:01:37.847Z,2.45
2023-03-22T07:04:07.135Z,2.03
2023-03-22T07:06:38.349Z,2.55
2023-03-22T07:09:08.525Z,2.83
2023-03-22T07:11:39.319Z,2.30
2023-03-22T07:14:08.721Z,1.83
2023-03-22T07:17:00.161Z,2.53
2023-03-22T07:19:31.451Z,1.92
2023-03-22T07:22:05.648Z,2.35
2023-03-22T07:24:40.314Z,2.08
2023-03-22T07:27:14.251Z,3.22
2023-03-22T07:29:44.925Z,2.97
2023-03-22T07:32:14.482Z,2.72
2023-03-22T07:35:01.233Z,3.60
2023-03-22T07:37:33.838Z,4.15
2023-03-22T07:40:07.148Z,3.83
2023-03-22T07:42:39.201Z,3.50
2023-03-22T07:45:31.534Z,3.42
2023-03-22T07:48:22.802Z,2.38
2023-03-22T07:51:20.458Z,3.00
2023-03-22T07:53:51.083Z,3.20
2023-03-22T07:56:20.145Z,3.35
2023-03-22T07:58:49.483Z,3.35
2023-03-22T08:01:18.954Z,4.53
2023-03-22T08:04:01.728Z,3.15
2023-03-22T08:06:49.305Z,4.93
2023-03-22T08:09:20.344Z,3.08
2023-03-22T08:11:50.646Z,2.80
2023-03-22T08:14:30.563Z,3.55
2023-03-22T08:17:03.749Z,2.10
2023-03-22T08:19:33.366Z,2.67
2023-03-22T08:22:06.970Z,2.45
2023-03-22T08:25:14.375Z,2.33
2023-03-22T08:27:44.057Z,4.05
2023-03-22T08:30:14.347Z,3.33
2023-03-22T08:32:45.393Z,2.80
2023-03-22T08:35:14.402Z,3.40
2023-03-22T08:37:44.062Z,3.38
2023-03-22T08:40:15.598Z,2.67
2023-03-22T08:42:50.581Z,4.30
2023-03-22T08:45:20.088Z,2.50
2023-03-22T08:47:55.840Z,5.00
2023-03-22T08:50:28.280Z,3.08
2023-03-22T08:53:11.272Z,3.78
2023-03-22T08:55:45.118Z,2.28
2023-03-22T08:58:19.700Z,2.47
2023-03-22T09:01:13.074Z,2.75
2023-03-22T09:03:47.799Z,3.38
2023-03-22T09:06:16.952Z,3.33
2023-03-22T09:08:46.252Z,3.10
2023-03-22T09:11:20.000Z,2.30
2023-03-22T09:13:51.114Z,2.28
2023-03-22T09:16:20.942Z,3.47
2023-03-22T09:18:50.701Z,2.92
2023-03-22T09:21:23.235Z,3.60
2023-03-22T09:23:55.953Z,2.38
2023-03-22T09:26:40.224Z,4.07
2023-03-22T09:29:09.625Z,2.83
2023-03-22T09:31:38.948Z,3.88
2023-03-22T09:34:31.366Z,3.67
2023-03-22T09:37:02.471Z,2.95
2023-03-22T09:39:39.675Z,2.95
2023-03-22T09:42:26.810Z,4.38
2023-03-22T09:44:58.155Z,5.60
2023-03-22T09:47:44.377Z,17.55
2023-03-22T09:50:20.402Z,2.97
2023-03-22T09:52:52.296Z,3.33
2023-03-22T09:55:24.240Z,3.05
2023-03-22T09:58:04.147Z,4.45
2023-03-22T10:00:41.807Z,3.35
2023-03-22T10:03:21.656Z,5.53
2023-03-22T10:05:54.636Z,3.75
2023-03-22T10:08:37.405Z,4.53
2023-03-22T10:11:16.260Z,7.20
2023-03-22T10:13:56.484Z,2.90
2023-03-22T10:16:29.737Z,6.32
2023-03-22T10:19:06.472Z,3.08
2023-03-22T10:21:37.144Z,6.53
2023-03-22T10:24:14.364Z,3.00
2023-03-22T10:26:47.429Z,5.70
2023-03-22T10:29:25.187Z,2.47
2023-03-22T10:31:56.208Z,5.70
2023-03-22T10:34:31.174Z,3.83
2023-03-22T10:37:04.271Z,2.25
2023-03-22T10:39:36.072Z,1.70
2023-03-22T10:42:10.432Z,3.55
2023-03-22T10:44:49.246Z,4.68
2023-03-22T10:47:21.525Z,5.30
2023-03-22T10:49:55.205Z,2.42
2023-03-22T10:52:40.739Z,2.55
2023-03-22T10:55:13.311Z,1.90
2023-03-22T10:57:44.265Z,1.98
2023-03-22T11:00:17.978Z,2.05
2023-03-22T11:02:52.625Z,2.42
2023-03-22T11:05:25.369Z,1.63
2023-03-22T11:07:55.929Z,2.42
2023-03-22T11:10:28.806Z,2.35
2023-03-22T11:13:18.739Z,2.38
2023-03-22T11:16:01.521Z,4.25
2023-03-22T11:18:33.331Z,2.13
2023-03-22T11:21:07.654Z,5.75
2023-03-22T11:23:38.731Z,8.15
2023-03-22T11:26:11.472Z,3.58
2023-03-22T11:28:46.612Z,3.47
2023-03-22T11:31:19.492Z,2.97
2023-03-22T11:33:57.551Z,2.28
2023-03-22T11:36:27.667Z,2.22
2023-03-22T11:39:01.586Z,4.22
2023-03-22T11:41:33.437Z,5.60
2023-03-22T11:44:04.387Z,6.57
2023-03-22T11:46:36.674Z,3.45
2023-03-22T11:49:10.528Z,2.13
2023-03-22T11:51:41.649Z,2.78
2023-03-22T11:54:16.058Z,3.65
2023-03-22T11:56:48.511Z,3.03
2023-03-22T11:59:25.676Z,5.25
2023-03-22T12:02:04.337Z,7.22
2023-03-22T12:04:39.267Z,6.20
2023-03-22T12:07:16.775Z,4.00
2023-03-22T12:09:52.319Z,4.00
2023-03-22T12:12:27.359Z,3.80
2023-03-22T12:15:02.272Z,5.65
2023-03-22T12:17:39.671Z,5.22
2023-03-22T12:20:21.183Z,3.05
2023-03-22T12:22:54.410Z,2.95
2023-03-22T12:25:34.733Z,2.67
2023-03-22T12:28:07.340Z,3.75
2023-03-22T12:30:43.666Z,4.57
2023-03-22T12:33:20.826Z,6.82
2023-03-22T12:35:54.565Z,10.60
2023-03-22T12:38:34.107Z,12.20
2023-03-22T12:41:07.546Z,7.93
2023-03-22T12:43:43.479Z,7.85
2023-03-22T12:46:19.906Z,8.88
2023-03-22T12:48:54.592Z,7.28
2023-03-22T12:51:24.074Z,7.43
2023-03-22T12:53:55.575Z,6.03
2023-03-22T12:56:27.686Z,7.78
2023-03-22T12:59:02.678Z,4.28
2023-03-22T13:01:37.170Z,5.90
2023-03-22T13:04:50.206Z,4.45
2023-03-22T13:07:35.490Z,3.80
2023-03-22T13:10:50.766Z,5.82
2023-03-22T13:13:45.160Z,7.15
2023-03-22T13:16:22.801Z,6.03
2023-03-22T13:19:03.431Z,6.15
2023-03-22T13:21:38.521Z,4.20
2023-03-22T13:24:24.510Z,6.55
2023-03-22T13:26:56.175Z,5.15
2023-03-22T13:29:26.936Z,6.90
2023-03-22T13:31:59.035Z,6.55
2023-03-22T13:34:34.447Z,7.75
2023-03-22T13:37:09.445Z,3.55
2023-03-22T13:39:39.462Z,5.38
2023-03-22T13:42:20.080Z,5.03
2023-03-22T13:44:58.675Z,4.93
2023-03-22T13:47:36.385Z,6.60
2023-03-22T13:50:14.709Z,6.65
2023-03-22T13:52:54.147Z,5.45
2023-03-22T13:55:48.418Z,3.25
2023-03-22T13:58:37.585Z,5.32
2023-03-22T14:01:09.392Z,3.75
2023-03-22T14:03:42.357Z,6.88
2023-03-22T14:06:17.558Z,6.45
2023-03-22T14:08:51.998Z,5.65
2023-03-22T14:11:25.312Z,3.17
2023-03-22T14:14:00.511Z,3.65
2023-03-22T14:19:18.085Z,9.05
